sensor_id;sensor_type;location;lat;lon;timestamp;P1;durP1;ratioP1;P2;durP2;ratioP2
78308;SDS011;67566;42.022;21.356;2023-04-24T00:01:14;15.82;;;10.40;;
78308;SDS011;67566;42.022;21.356;2023-04-24T00:03:40;15.88;;;11.15;;
78308;SDS011;67566;42.022;21.356;2023-04-24T00:06:06;12.82;;;8.63;;
78308;SDS011;67566;42.022;21.356;2023-04-24T00:08:33;15.02;;;9.90;;
78308;SDS011;67566;42.022;21.356;2023-04-24T00:10:59;15.35;;;10.25;;
78308;SDS011;67566;42.022;21.356;2023-04-24T00:13:25;12.90;;;9.10;;
78308;SDS011;67566;42.022;21.356;2023-04-24T00:15:51;15.65;;;10.40;;
78308;SDS011;67566;42.022;21.356;2023-04-24T00:18:16;11.15;;;8.32;;
78308;SDS011;67566;42.022;21.356;2023-04-24T00:20:42;11.20;;;7.43;;
78308;SDS011;67566;42.022;21.356;2023-04-24T00:23:08;12.80;;;9.57;;
78308;SDS011;67566;42.022;21.356;2023-04-24T00:25:34;13.25;;;9.10;;
78308;SDS011;67566;42.022;21.356;2023-04-24T00:27:59;15.23;;;10.20;;
78308;SDS011;67566;42.022;21.356;2023-04-24T00:30:25;12.48;;;9.88;;
78308;SDS011;67566;42.022;21.356;2023-04-24T00:32:51;13.82;;;9.98;;
78308;SDS011;67566;42.022;21.356;2023-04-24T00:35:16;13.85;;;10.07;;
78308;SDS011;67566;42.022;21.356;2023-04-24T00:37:42;11.48;;;8.65;;
78308;SDS011;67566;42.022;21.356;2023-04-24T00:40:07;14.20;;;10.75;;
78308;SDS011;67566;42.022;21.356;2023-04-24T00:42:33;15.68;;;9.60;;
78308;SDS011;67566;42.022;21.356;2023-04-24T00:44:59;14.43;;;10.18;;
78308;SDS011;67566;42.022;21.356;2023-04-24T00:47:26;19.10;;;12.32;;
78308;SDS011;67566;42.022;21.356;2023-04-24T00:49:52;12.82;;;8.02;;
78308;SDS011;67566;42.022;21.356;2023-04-24T00:52:17;11.48;;;9.20;;
78308;SDS011;67566;42.022;21.356;2023-04-24T00:54:45;13.52;;;10.45;;
78308;SDS011;67566;42.022;21.356;2023-04-24T00:57:12;11.10;;;9.15;;
78308;SDS011;67566;42.022;21.356;2023-04-24T00:59:39;10.90;;;8.93;;
78308;SDS011;67566;42.022;21.356;2023-04-24T01:02:06;13.40;;;10.38;;
78308;SDS011;67566;42.022;21.356;2023-04-24T01:04:32;13.63;;;9.38;;
78308;SDS011;67566;42.022;21.356;2023-04-24T01:06:58;14.85;;;9.82;;
78308;SDS011;67566;42.022;21.356;2023-04-24T01:09:23;13.65;;;10.05;;
78308;SDS011;67566;42.022;21.356;2023-04-24T01:11:50;14.40;;;10.43;;
78308;SDS011;67566;42.022;21.356;2023-04-24T01:14:16;11.45;;;9.23;;
78308;SDS011;67566;42.022;21.356;2023-04-24T01:16:41;15.95;;;9.10;;
78308;SDS011;67566;42.022;21.356;2023-04-24T01:19:07;12.32;;;8.38;;
78308;SDS011;67566;42.022;21.356;2023-04-24T01:21:34;12.63;;;9.18;;
78308;SDS011;67566;42.022;21.356;2023-04-24T01:24:02;11.30;;;9.13;;
78308;SDS011;67566;42.022;21.356;2023-04-24T01:26:31;13.75;;;10.10;;
78308;SDS011;67566;42.022;21.356;2023-04-24T01:28:57;12.40;;;9.20;;
78308;SDS011;67566;42.022;21.356;2023-04-24T01:31:23;10.93;;;8.75;;
78308;SDS011;67566;42.022;21.356;2023-04-24T01:33:49;10.73;;;8.57;;
78308;SDS011;67566;42.022;21.356;2023-04-24T01:36:14;12.43;;;9.43;;
78308;SDS011;67566;42.022;21.356;2023-04-24T01:38:41;11.90;;;8.73;;
78308;SDS011;67566;42.022;21.356;2023-04-24T01:41:07;14.75;;;11.07;;
78308;SDS011;67566;42.022;21.356;2023-04-24T01:43:32;10.07;;;7.75;;
78308;SDS011;67566;42.022;21.356;2023-04-24T01:45:58;14.15;;;9.88;;
78308;SDS011;67566;42.022;21.356;2023-04-24T01:48:23;12.50;;;9.45;;
78308;SDS011;67566;42.022;21.356;2023-04-24T01:50:49;13.13;;;9.43;;
78308;SDS011;67566;42.022;21.356;2023-04-24T01:53:14;14.00;;;9.27;;
78308;SDS011;67566;42.022;21.356;2023-04-24T01:55:40;12.55;;;9.18;;
78308;SDS011;67566;42.022;21.356;2023-04-24T01:58:06;11.75;;;8.85;;
78308;SDS011;67566;42.022;21.356;2023-04-24T02:00:32;12.20;;;9.38;;
78308;SDS011;67566;42.022;21.356;2023-04-24T02:02:58;9.98;;;8.25;;
78308;SDS011;67566;42.022;21.356;2023-04-24T02:05:23;9.43;;;7.50;;
78308;SDS011;67566;42.022;21.356;2023-04-24T02:07:49;8.25;;;7.18;;
78308;SDS011;67566;42.022;21.356;2023-04-24T02:10:14;10.40;;;8.60;;
78308;SDS011;67566;42.022;21.356;2023-04-24T02:12:40;8.52;;;7.35;;
78308;SDS011;67566;42.022;21.356;2023-04-24T02:15:05;10.10;;;7.97;;
78308;SDS011;67566;42.022;21.356;2023-04-24T02:17:31;12.40;;;9.77;;
78308;SDS011;67566;42.022;21.356;2023-04-24T02:19:57;13.90;;;9.50;;
78308;SDS011;67566;42.022;21.356;2023-04-24T02:22:22;10.90;;;9.35;;
78308;SDS011;67566;42.022;21.356;2023-04-24T02:24:48;15.13;;;12.38;;
78308;SDS011;67566;42.022;21.356;2023-04-24T02:27:13;14.73;;;8.38;;
78308;SDS011;67566;42.022;21.356;2023-04-24T02:29:39;11.02;;;8.55;;
78308;SDS011;67566;42.022;21.356;2023-04-24T02:32:05;10.05;;;7.78;;
78308;SDS011;67566;42.022;21.356;2023-04-24T02:34:30;12.18;;;10.43;;
78308;SDS011;67566;42.022;21.356;2023-04-24T02:36:56;14.15;;;10.63;;
78308;SDS011;67566;42.022;21.356;2023-04-24T02:39:21;12.25;;;8.75;;
78308;SDS011;67566;42.022;21.356;2023-04-24T02:41:47;10.88;;;9.57;;
78308;SDS011;67566;42.022;21.356;2023-04-24T02:44:12;12.30;;;8.93;;
78308;SDS011;67566;42.022;21.356;2023-04-24T02:46:38;11.20;;;8.43;;
78308;SDS011;67566;42.022;21.356;2023-04-24T02:49:03;13.38;;;10.70;;
78308;SDS011;67566;42.022;21.356;2023-04-24T02:51:29;14.30;;;10.38;;
78308;SDS011;67566;42.022;21.356;2023-04-24T02:53:55;12.90;;;10.48;;
78308;SDS011;67566;42.022;21.356;2023-04-24T02:56:20;12.20;;;9.13;;
78308;SDS011;67566;42.022;21.356;2023-04-24T02:58:46;9.68;;;7.68;;
78308;SDS011;67566;42.022;21.356;2023-04-24T03:01:11;10.90;;;8.05;;
78308;SDS011;67566;42.022;21.356;2023-04-24T03:03:38;11.45;;;9.07;;
78308;SDS011;67566;42.022;21.356;2023-04-24T03:06:04;10.13;;;8.35;;
78308;SDS011;67566;42.022;21.356;2023-04-24T03:08:33;12.18;;;8.30;;
78308;SDS011;67566;42.022;21.356;2023-04-24T03:10:59;9.77;;;8.25;;
78308;SDS011;67566;42.022;21.356;2023-04-24T03:13:24;10.45;;;9.35;;
78308;SDS011;67566;42.022;21.356;2023-04-24T03:15:50;15.15;;;10.65;;
78308;SDS011;67566;42.022;21.356;2023-04-24T03:18:15;13.75;;;8.38;;
78308;SDS011;67566;42.022;21.356;2023-04-24T03:20:41;12.15;;;8.88;;
78308;SDS011;67566;42.022;21.356;2023-04-24T03:23:06;12.80;;;9.90;;
78308;SDS011;67566;42.022;21.356;2023-04-24T03:25:32;14.00;;;11.23;;
78308;SDS011;67566;42.022;21.356;2023-04-24T03:27:57;11.50;;;10.18;;
78308;SDS011;67566;42.022;21.356;2023-04-24T03:30:23;11.63;;;8.85;;
78308;SDS011;67566;42.022;21.356;2023-04-24T03:32:48;14.65;;;10.55;;
78308;SDS011;67566;42.022;21.356;2023-04-24T03:35:14;13.30;;;10.82;;
78308;SDS011;67566;42.022;21.356;2023-04-24T03:37:39;13.63;;;11.23;;
78308;SDS011;67566;42.022;21.356;2023-04-24T03:40:05;17.73;;;12.23;;
78308;SDS011;67566;42.022;21.356;2023-04-24T03:42:32;19.98;;;13.88;;
78308;SDS011;67566;42.022;21.356;2023-04-24T03:44:57;17.25;;;12.48;;
78308;SDS011;67566;42.022;21.356;2023-04-24T03:47:23;12.20;;;9.25;;
78308;SDS011;67566;42.022;21.356;2023-04-24T03:49:48;14.93;;;11.63;;
78308;SDS011;67566;42.022;21.356;2023-04-24T03:52:14;16.50;;;13.27;;
78308;SDS011;67566;42.022;21.356;2023-04-24T03:54:39;16.15;;;11.93;;
78308;SDS011;67566;42.022;21.356;2023-04-24T03:57:05;14.05;;;10.70;;
78308;SDS011;67566;42.022;21.356;2023-04-24T03:59:30;14.25;;;10.82;;
78308;SDS011;67566;42.022;21.356;2023-04-24T04:01:56;13.07;;;10.23;;
78308;SDS011;67566;42.022;21.356;2023-04-24T04:04:21;12.85;;;9.93;;
78308;SDS011;67566;42.022;21.356;2023-04-24T04:06:47;11.32;;;10.13;;
78308;SDS011;67566;42.022;21.356;2023-04-24T04:09:12;15.02;;;10.93;;
78308;SDS011;67566;42.022;21.356;2023-04-24T04:11:41;21.52;;;14.13;;
78308;SDS011;67566;42.022;21.356;2023-04-24T04:14:07;19.52;;;13.80;;
78308;SDS011;67566;42.022;21.356;2023-04-24T04:16:32;17.67;;;11.50;;
78308;SDS011;67566;42.022;21.356;2023-04-24T04:18:58;15.45;;;10.80;;
78308;SDS011;67566;42.022;21.356;2023-04-24T04:21:23;20.60;;;12.52;;
78308;SDS011;67566;42.022;21.356;2023-04-24T04:23:49;15.02;;;10.30;;
78308;SDS011;67566;42.022;21.356;2023-04-24T04:26:14;12.73;;;11.05;;
78308;SDS011;67566;42.022;21.356;2023-04-24T04:28:40;11.30;;;8.25;;
78308;SDS011;67566;42.022;21.356;2023-04-24T04:31:05;15.88;;;10.82;;
78308;SDS011;67566;42.022;21.356;2023-04-24T04:33:32;13.02;;;8.30;;
78308;SDS011;67566;42.022;21.356;2023-04-24T04:35:58;11.93;;;8.75;;
78308;SDS011;67566;42.022;21.356;2023-04-24T04:38:25;16.60;;;10.20;;
78308;SDS011;67566;42.022;21.356;2023-04-24T04:40:54;15.50;;;11.13;;
78308;SDS011;67566;42.022;21.356;2023-04-24T04:43:22;14.80;;;10.43;;
78308;SDS011;67566;42.022;21.356;2023-04-24T04:45:49;12.73;;;9.82;;
78308;SDS011;67566;42.022;21.356;2023-04-24T04:48:16;10.40;;;8.50;;
78308;SDS011;67566;42.022;21.356;2023-04-24T04:50:42;11.75;;;8.60;;
78308;SDS011;67566;42.022;21.356;2023-04-24T04:53:08;13.60;;;8.48;;
78308;SDS011;67566;42.022;21.356;2023-04-24T04:55:33;10.75;;;8.35;;
78308;SDS011;67566;42.022;21.356;2023-04-24T04:57:59;12.40;;;8.75;;
78308;SDS011;67566;42.022;21.356;2023-04-24T05:00:25;14.02;;;9.65;;
78308;SDS011;67566;42.022;21.356;2023-04-24T05:02:52;11.15;;;8.02;;
78308;SDS011;67566;42.022;21.356;2023-04-24T05:05:18;9.13;;;7.32;;
78308;SDS011;67566;42.022;21.356;2023-04-24T05:07:44;7.20;;;6.50;;
78308;SDS011;67566;42.022;21.356;2023-04-24T05:10:09;9.77;;;7.05;;
78308;SDS011;67566;42.022;21.356;2023-04-24T05:12:35;7.65;;;6.85;;
78308;SDS011;67566;42.022;21.356;2023-04-24T05:15:01;6.80;;;6.00;;
78308;SDS011;67566;42.022;21.356;2023-04-24T05:17:26;8.15;;;6.70;;
78308;SDS011;67566;42.022;21.356;2023-04-24T05:19:52;6.85;;;6.15;;
78308;SDS011;67566;42.022;21.356;2023-04-24T05:22:17;6.22;;;5.07;;
78308;SDS011;67566;42.022;21.356;2023-04-24T05:24:45;6.35;;;5.65;;
78308;SDS011;67566;42.022;21.356;2023-04-24T05:27:11;9.00;;;5.95;;
78308;SDS011;67566;42.022;21.356;2023-04-24T05:29:37;7.63;;;5.97;;
78308;SDS011;67566;42.022;21.356;2023-04-24T05:32:02;8.43;;;6.45;;
78308;SDS011;67566;42.022;21.356;2023-04-24T05:34:28;8.52;;;5.97;;
78308;SDS011;67566;42.022;21.356;2023-04-24T05:36:54;7.75;;;6.38;;
78308;SDS011;67566;42.022;21.356;2023-04-24T05:39:19;8.55;;;5.55;;
78308;SDS011;67566;42.022;21.356;2023-04-24T05:41:45;8.95;;;6.10;;
78308;SDS011;67566;42.022;21.356;2023-04-24T05:44:10;9.52;;;6.13;;
78308;SDS011;67566;42.022;21.356;2023-04-24T05:46:36;9.10;;;6.38;;
78308;SDS011;67566;42.022;21.356;2023-04-24T05:49:02;9.15;;;8.25;;
78308;SDS011;67566;42.022;21.356;2023-04-24T05:51:27;7.65;;;6.45;;
78308;SDS011;67566;42.022;21.356;2023-04-24T05:53:53;8.23;;;6.70;;
78308;SDS011;67566;42.022;21.356;2023-04-24T05:56:19;9.77;;;5.65;;
78308;SDS011;67566;42.022;21.356;2023-04-24T05:58:45;5.68;;;4.38;;
78308;SDS011;67566;42.022;21.356;2023-04-24T06:01:11;7.90;;;4.72;;
78308;SDS011;67566;42.022;21.356;2023-04-24T06:03:38;7.85;;;6.30;;
78308;SDS011;67566;42.022;21.356;2023-04-24T06:06:05;6.57;;;5.53;;
78308;SDS011;67566;42.022;21.356;2023-04-24T06:08:31;6.75;;;5.63;;
78308;SDS011;67566;42.022;21.356;2023-04-24T06:10:56;6.28;;;4.68;;
78308;SDS011;67566;42.022;21.356;2023-04-24T06:13:22;6.05;;;5.45;;
78308;SDS011;67566;42.022;21.356;2023-04-24T06:15:47;7.43;;;5.70;;
78308;SDS011;67566;42.022;21.356;2023-04-24T06:18:13;6.45;;;4.63;;
78308;SDS011;67566;42.022;21.356;2023-04-24T06:20:39;5.10;;;4.20;;
78308;SDS011;67566;42.022;21.356;2023-04-24T06:23:05;8.32;;;5.82;;
78308;SDS011;67566;42.022;21.356;2023-04-24T06:25:30;7.63;;;6.93;;
78308;SDS011;67566;42.022;21.356;2023-04-24T06:27:56;8.23;;;6.00;;
78308;SDS011;67566;42.022;21.356;2023-04-24T06:30:22;6.40;;;5.65;;
78308;SDS011;67566;42.022;21.356;2023-04-24T06:32:47;8.93;;;6.75;;
78308;SDS011;67566;42.022;21.356;2023-04-24T06:35:13;9.07;;;7.32;;
78308;SDS011;67566;42.022;21.356;2023-04-24T06:37:39;9.15;;;6.70;;
78308;SDS011;67566;42.022;21.356;2023-04-24T06:40:06;6.70;;;5.13;;
78308;SDS011;67566;42.022;21.356;2023-04-24T06:42:32;11.07;;;7.25;;
78308;SDS011;67566;42.022;21.356;2023-04-24T06:44:58;6.57;;;5.88;;
78308;SDS011;67566;42.022;21.356;2023-04-24T06:47:24;7.28;;;6.40;;
78308;SDS011;67566;42.022;21.356;2023-04-24T06:49:49;8.95;;;5.82;;
78308;SDS011;67566;42.022;21.356;2023-04-24T06:52:17;6.05;;;5.47;;
78308;SDS011;67566;42.022;21.356;2023-04-24T06:54:43;9.57;;;5.90;;
78308;SDS011;67566;42.022;21.356;2023-04-24T06:57:08;7.60;;;6.18;;
78308;SDS011;67566;42.022;21.356;2023-04-24T06:59:34;8.07;;;6.53;;
78308;SDS011;67566;42.022;21.356;2023-04-24T07:01:59;9.43;;;6.93;;
78308;SDS011;67566;42.022;21.356;2023-04-24T07:04:25;7.90;;;6.85;;
78308;SDS011;67566;42.022;21.356;2023-04-24T07:06:50;6.35;;;5.75;;
78308;SDS011;67566;42.022;21.356;2023-04-24T07:09:16;11.32;;;5.90;;
78308;SDS011;67566;42.022;21.356;2023-04-24T07:11:43;7.82;;;5.57;;
78308;SDS011;67566;42.022;21.356;2023-04-24T07:14:09;6.22;;;5.63;;
78308;SDS011;67566;42.022;21.356;2023-04-24T07:16:35;6.50;;;5.50;;
78308;SDS011;67566;42.022;21.356;2023-04-24T07:19:00;8.30;;;5.82;;
78308;SDS011;67566;42.022;21.356;2023-04-24T07:21:26;6.13;;;5.53;;
78308;SDS011;67566;42.022;21.356;2023-04-24T07:23:52;6.72;;;5.78;;
78308;SDS011;67566;42.022;21.356;2023-04-24T07:26:17;7.03;;;6.35;;
78308;SDS011;67566;42.022;21.356;2023-04-24T07:28:43;12.98;;;6.70;;
78308;SDS011;67566;42.022;21.356;2023-04-24T07:31:08;9.55;;;7.60;;
78308;SDS011;67566;42.022;21.356;2023-04-24T07:33:35;7.53;;;6.15;;
78308;SDS011;67566;42.022;21.356;2023-04-24T07:36:01;8.15;;;6.13;;
78308;SDS011;67566;42.022;21.356;2023-04-24T07:38:28;6.57;;;5.95;;
78308;SDS011;67566;42.022;21.356;2023-04-24T07:40:54;7.78;;;6.20;;
78308;SDS011;67566;42.022;21.356;2023-04-24T07:43:20;9.68;;;7.13;;
78308;SDS011;67566;42.022;21.356;2023-04-24T07:45:49;11.30;;;7.75;;
78308;SDS011;67566;42.022;21.356;2023-04-24T07:48:16;9.25;;;6.68;;
78308;SDS011;67566;42.022;21.356;2023-04-24T07:50:42;7.40;;;6.32;;
78308;SDS011;67566;42.022;21.356;2023-04-24T07:53:08;7.60;;;6.43;;
78308;SDS011;67566;42.022;21.356;2023-04-24T07:55:34;10.20;;;7.53;;
78308;SDS011;67566;42.022;21.356;2023-04-24T07:57:59;9.57;;;7.35;;
78308;SDS011;67566;42.022;21.356;2023-04-24T08:00:25;10.02;;;7.70;;
78308;SDS011;67566;42.022;21.356;2023-04-24T08:02:51;8.95;;;7.43;;
78308;SDS011;67566;42.022;21.356;2023-04-24T08:05:16;9.35;;;7.18;;
78308;SDS011;67566;42.022;21.356;2023-04-24T08:07:42;8.77;;;6.95;;
78308;SDS011;67566;42.022;21.356;2023-04-24T08:10:09;9.57;;;7.43;;
78308;SDS011;67566;42.022;21.356;2023-04-24T08:12:35;11.15;;;7.22;;
78308;SDS011;67566;42.022;21.356;2023-04-24T08:15:00;9.07;;;6.93;;
78308;SDS011;67566;42.022;21.356;2023-04-24T08:17:26;8.52;;;6.95;;
78308;SDS011;67566;42.022;21.356;2023-04-24T08:19:51;11.57;;;7.20;;
78308;SDS011;67566;42.022;21.356;2023-04-24T08:22:24;9.02;;;6.70;;
78308;SDS011;67566;42.022;21.356;2023-04-24T08:24:49;9.57;;;7.28;;
78308;SDS011;67566;42.022;21.356;2023-04-24T08:27:15;12.48;;;7.93;;
78308;SDS011;67566;42.022;21.356;2023-04-24T08:29:41;13.82;;;8.60;;
78308;SDS011;67566;42.022;21.356;2023-04-24T08:32:06;11.75;;;8.20;;
78308;SDS011;67566;42.022;21.356;2023-04-24T08:34:32;10.52;;;8.05;;
78308;SDS011;67566;42.022;21.356;2023-04-24T08:36:57;12.88;;;8.57;;
78308;SDS011;67566;42.022;21.356;2023-04-24T08:39:23;7.85;;;7.05;;
78308;SDS011;67566;42.022;21.356;2023-04-24T08:41:48;10.75;;;7.55;;
78308;SDS011;67566;42.022;21.356;2023-04-24T08:44:16;8.85;;;7.07;;
78308;SDS011;67566;42.022;21.356;2023-04-24T08:46:42;11.23;;;7.53;;
78308;SDS011;67566;42.022;21.356;2023-04-24T08:49:10;7.50;;;6.70;;
78308;SDS011;67566;42.022;21.356;2023-04-24T08:51:38;9.13;;;7.78;;
78308;SDS011;67566;42.022;21.356;2023-04-24T08:54:04;9.82;;;7.57;;
78308;SDS011;67566;42.022;21.356;2023-04-24T08:56:32;11.55;;;6.85;;
78308;SDS011;67566;42.022;21.356;2023-04-24T08:58:59;10.27;;;9.25;;
78308;SDS011;67566;42.022;21.356;2023-04-24T09:01:27;10.32;;;8.98;;
78308;SDS011;67566;42.022;21.356;2023-04-24T09:03:53;10.15;;;7.43;;
78308;SDS011;67566;42.022;21.356;2023-04-24T09:06:21;9.68;;;6.18;;
78308;SDS011;67566;42.022;21.356;2023-04-24T09:08:47;7.88;;;6.82;;
78308;SDS011;67566;42.022;21.356;2023-04-24T09:11:18;8.55;;;7.53;;
78308;SDS011;67566;42.022;21.356;2023-04-24T09:13:44;9.60;;;7.70;;
78308;SDS011;67566;42.022;21.356;2023-04-24T09:16:11;9.55;;;7.78;;
78308;SDS011;67566;42.022;21.356;2023-04-24T09:18:36;9.38;;;7.07;;
78308;SDS011;67566;42.022;21.356;2023-04-24T09:21:03;12.35;;;8.70;;
78308;SDS011;67566;42.022;21.356;2023-04-24T09:23:31;10.82;;;8.68;;
78308;SDS011;67566;42.022;21.356;2023-04-24T09:25:57;10.70;;;6.75;;
78308;SDS011;67566;42.022;21.356;2023-04-24T09:31:04;10.07;;;8.38;;
78308;SDS011;67566;42.022;21.356;2023-04-24T09:33:31;12.93;;;7.25;;
78308;SDS011;67566;42.022;21.356;2023-04-24T09:35:59;13.15;;;7.80;;
78308;SDS011;67566;42.022;21.356;2023-04-24T09:38:35;12.50;;;8.40;;
78308;SDS011;67566;42.022;21.356;2023-04-24T09:41:02;12.88;;;7.95;;
78308;SDS011;67566;42.022;21.356;2023-04-24T09:43:29;12.73;;;9.02;;
78308;SDS011;67566;42.022;21.356;2023-04-24T09:45:56;18.02;;;9.27;;
78308;SDS011;67566;42.022;21.356;2023-04-24T09:48:30;9.52;;;7.65;;
78308;SDS011;67566;42.022;21.356;2023-04-24T09:51:00;13.68;;;11.00;;
78308;SDS011;67566;42.022;21.356;2023-04-24T09:53:28;9.13;;;8.13;;
78308;SDS011;67566;42.022;21.356;2023-04-24T09:55:54;8.98;;;7.13;;
78308;SDS011;67566;42.022;21.356;2023-04-24T09:58:25;12.18;;;7.72;;
78308;SDS011;67566;42.022;21.356;2023-04-24T10:00:54;13.43;;;9.38;;
78308;SDS011;67566;42.022;21.356;2023-04-24T10:03:20;13.95;;;9.07;;
78308;SDS011;67566;42.022;21.356;2023-04-24T10:05:48;16.25;;;7.43;;
78308;SDS011;67566;42.022;21.356;2023-04-24T10:08:14;8.80;;;7.55;;
78308;SDS011;67566;42.022;21.356;2023-04-24T10:10:43;10.32;;;7.50;;
78308;SDS011;67566;42.022;21.356;2023-04-24T10:13:10;10.88;;;8.15;;
78308;SDS011;67566;42.022;21.356;2023-04-24T10:15:37;9.35;;;8.07;;
78308;SDS011;67566;42.022;21.356;2023-04-24T10:18:05;9.57;;;7.43;;
78308;SDS011;67566;42.022;21.356;2023-04-24T10:20:31;12.02;;;8.85;;
78308;SDS011;67566;42.022;21.356;2023-04-24T10:22:58;11.35;;;8.45;;
78308;SDS011;67566;42.022;21.356;2023-04-24T10:25:25;11.85;;;7.68;;
78308;SDS011;67566;42.022;21.356;2023-04-24T10:27:53;11.57;;;7.30;;
78308;SDS011;67566;42.022;21.356;2023-04-24T10:30:22;10.15;;;7.88;;
78308;SDS011;67566;42.022;21.356;2023-04-24T10:32:48;12.90;;;8.52;;
78308;SDS011;67566;42.022;21.356;2023-04-24T10:35:14;12.20;;;8.27;;
78308;SDS011;67566;42.022;21.356;2023-04-24T10:37:48;9.88;;;7.00;;
78308;SDS011;67566;42.022;21.356;2023-04-24T10:40:18;11.93;;;8.23;;
78308;SDS011;67566;42.022;21.356;2023-04-24T10:42:46;10.57;;;7.47;;
78308;SDS011;67566;42.022;21.356;2023-04-24T10:45:20;11.60;;;8.13;;
78308;SDS011;67566;42.022;21.356;2023-04-24T10:47:56;9.43;;;7.53;;
78308;SDS011;67566;42.022;21.356;2023-04-24T10:50:25;7.85;;;6.57;;
78308;SDS011;67566;42.022;21.356;2023-04-24T10:52:52;8.77;;;6.60;;
78308;SDS011;67566;42.022;21.356;2023-04-24T10:58:06;7.68;;;6.88;;
78308;SDS011;67566;42.022;21.356;2023-04-24T11:00:32;10.00;;;7.30;;
78308;SDS011;67566;42.022;21.356;2023-04-24T11:03:01;9.82;;;7.63;;
78308;SDS011;67566;42.022;21.356;2023-04-24T11:08:31;9.85;;;6.68;;
78308;SDS011;67566;42.022;21.356;2023-04-24T11:11:18;9.63;;;7.85;;
78308;SDS011;67566;42.022;21.356;2023-04-24T11:19:09;7.55;;;6.65;;
78308;SDS011;67566;42.022;21.356;2023-04-24T11:26:56;7.70;;;6.90;;
78308;SDS011;67566;42.022;21.356;2023-04-24T11:34:53;6.75;;;6.15;;
78308;SDS011;67566;42.022;21.356;2023-04-24T11:37:21;8.70;;;5.40;;
78308;SDS011;67566;42.022;21.356;2023-04-24T11:39:54;6.82;;;5.70;;
78308;SDS011;67566;42.022;21.356;2023-04-24T11:42:21;7.38;;;5.47;;
78308;SDS011;67566;42.022;21.356;2023-04-24T11:44:49;7.50;;;4.97;;
78308;SDS011;67566;42.022;21.356;2023-04-24T11:47:16;8.50;;;5.82;;
78308;SDS011;67566;42.022;21.356;2023-04-24T11:49:42;9.40;;;6.03;;
78308;SDS011;67566;42.022;21.356;2023-04-24T11:52:08;8.55;;;5.78;;
78308;SDS011;67566;42.022;21.356;2023-04-24T11:54:35;6.75;;;5.30;;
78308;SDS011;67566;42.022;21.356;2023-04-24T11:57:03;6.22;;;4.80;;
78308;SDS011;67566;42.022;21.356;2023-04-24T11:59:34;8.15;;;5.72;;
78308;SDS011;67566;42.022;21.356;2023-04-24T12:02:00;9.60;;;6.45;;
78308;SDS011;67566;42.022;21.356;2023-04-24T12:04:26;7.70;;;5.75;;
78308;SDS011;67566;42.022;21.356;2023-04-24T12:09:40;10.38;;;6.07;;
78308;SDS011;67566;42.022;21.356;2023-04-24T12:12:10;7.60;;;5.63;;
78308;SDS011;67566;42.022;21.356;2023-04-24T12:14:50;6.07;;;5.30;;
78308;SDS011;67566;42.022;21.356;2023-04-24T12:17:23;6.90;;;6.18;;
78308;SDS011;67566;42.022;21.356;2023-04-24T12:20:00;9.23;;;6.20;;
78308;SDS011;67566;42.022;21.356;2023-04-24T12:22:42;6.75;;;6.05;;
78308;SDS011;67566;42.022;21.356;2023-04-24T12:25:16;8.45;;;6.07;;
78308;SDS011;67566;42.022;21.356;2023-04-24T12:27:46;6.95;;;4.88;;
78308;SDS011;67566;42.022;21.356;2023-04-24T12:30:17;10.13;;;6.40;;
78308;SDS011;67566;42.022;21.356;2023-04-24T12:32:44;7.65;;;6.18;;
78308;SDS011;67566;42.022;21.356;2023-04-24T12:35:11;12.50;;;6.45;;
78308;SDS011;67566;42.022;21.356;2023-04-24T12:37:36;9.35;;;6.22;;
78308;SDS011;67566;42.022;21.356;2023-04-24T12:42:35;6.03;;;5.43;;
78308;SDS011;67566;42.022;21.356;2023-04-24T12:45:02;11.93;;;5.72;;
78308;SDS011;67566;42.022;21.356;2023-04-24T12:47:32;8.38;;;5.78;;
78308;SDS011;67566;42.022;21.356;2023-04-24T12:49:59;8.10;;;5.00;;
78308;SDS011;67566;42.022;21.356;2023-04-24T12:52:27;9.73;;;6.38;;
78308;SDS011;67566;42.022;21.356;2023-04-24T12:54:55;9.98;;;6.13;;
78308;SDS011;67566;42.022;21.356;2023-04-24T12:57:22;9.77;;;6.68;;
78308;SDS011;67566;42.022;21.356;2023-04-24T12:59:49;7.85;;;6.07;;
78308;SDS011;67566;42.022;21.356;2023-04-24T13:02:14;11.27;;;6.60;;
78308;SDS011;67566;42.022;21.356;2023-04-24T13:04:44;11.52;;;5.97;;
78308;SDS011;67566;42.022;21.356;2023-04-24T13:07:11;10.45;;;6.45;;
78308;SDS011;67566;42.022;21.356;2023-04-24T13:09:37;9.07;;;6.13;;
78308;SDS011;67566;42.022;21.356;2023-04-24T13:12:03;12.90;;;7.60;;
78308;SDS011;67566;42.022;21.356;2023-04-24T13:14:30;6.03;;;5.43;;
78308;SDS011;67566;42.022;21.356;2023-04-24T13:16:56;10.32;;;7.55;;
78308;SDS011;67566;42.022;21.356;2023-04-24T13:19:23;9.43;;;5.60;;
78308;SDS011;67566;42.022;21.356;2023-04-24T13:21:50;9.10;;;6.05;;
78308;SDS011;67566;42.022;21.356;2023-04-24T13:24:16;6.88;;;5.65;;
78308;SDS011;67566;42.022;21.356;2023-04-24T13:26:42;17.63;;;5.60;;
78308;SDS011;67566;42.022;21.356;2023-04-24T13:29:11;12.68;;;5.90;;
78308;SDS011;67566;42.022;21.356;2023-04-24T13:31:36;6.32;;;5.53;;
78308;SDS011;67566;42.022;21.356;2023-04-24T13:34:02;9.80;;;5.70;;
78308;SDS011;67566;42.022;21.356;2023-04-24T13:36:29;9.05;;;6.45;;
78308;SDS011;67566;42.022;21.356;2023-04-24T13:38:55;8.85;;;6.43;;
78308;SDS011;67566;42.022;21.356;2023-04-24T13:41:20;12.32;;;6.65;;
78308;SDS011;67566;42.022;21.356;2023-04-24T13:43:46;7.88;;;6.05;;
78308;SDS011;67566;42.022;21.356;2023-04-24T13:46:11;6.85;;;5.18;;
78308;SDS011;67566;42.022;21.356;2023-04-24T13:48:37;7.72;;;6.20;;
78308;SDS011;67566;42.022;21.356;2023-04-24T13:51:02;7.15;;;5.63;;
78308;SDS011;67566;42.022;21.356;2023-04-24T13:53:28;10.90;;;6.70;;
78308;SDS011;67566;42.022;21.356;2023-04-24T13:55:53;31.67;;;14.32;;
78308;SDS011;67566;42.022;21.356;2023-04-24T13:58:19;19.83;;;11.90;;
78308;SDS011;67566;42.022;21.356;2023-04-24T14:00:45;20.02;;;10.98;;
78308;SDS011;67566;42.022;21.356;2023-04-24T14:03:11;11.75;;;7.60;;
78308;SDS011;67566;42.022;21.356;2023-04-24T14:05:36;7.95;;;5.68;;
78308;SDS011;67566;42.022;21.356;2023-04-24T14:08:02;6.95;;;6.22;;
78308;SDS011;67566;42.022;21.356;2023-04-24T14:10:27;9.27;;;6.15;;
78308;SDS011;67566;42.022;21.356;2023-04-24T14:12:53;6.47;;;4.22;;
78308;SDS011;67566;42.022;21.356;2023-04-24T14:15:18;9.90;;;7.93;;
78308;SDS011;67566;42.022;21.356;2023-04-24T14:17:44;12.35;;;9.40;;
78308;SDS011;67566;42.022;21.356;2023-04-24T14:20:10;10.95;;;7.80;;
78308;SDS011;67566;42.022;21.356;2023-04-24T14:22:37;10.60;;;7.63;;
78308;SDS011;67566;42.022;21.356;2023-04-24T14:25:02;12.05;;;8.45;;
78308;SDS011;67566;42.022;21.356;2023-04-24T14:27:29;8.40;;;7.15;;
78308;SDS011;67566;42.022;21.356;2023-04-24T14:29:55;8.82;;;7.00;;
78308;SDS011;67566;42.022;21.356;2023-04-24T14:32:21;9.32;;;8.27;;
78308;SDS011;67566;42.022;21.356;2023-04-24T14:34:46;19.13;;;11.45;;
78308;SDS011;67566;42.022;21.356;2023-04-24T14:37:12;12.75;;;8.65;;
78308;SDS011;67566;42.022;21.356;2023-04-24T14:39:37;8.80;;;5.80;;
78308;SDS011;67566;42.022;21.356;2023-04-24T14:42:03;8.00;;;5.60;;
78308;SDS011;67566;42.022;21.356;2023-04-24T14:44:28;7.50;;;6.55;;
78308;SDS011;67566;42.022;21.356;2023-04-24T14:46:53;9.25;;;8.00;;
78308;SDS011;67566;42.022;21.356;2023-04-24T14:49:19;8.40;;;7.50;;
78308;SDS011;67566;42.022;21.356;2023-04-24T14:51:45;7.85;;;6.18;;